Time;durP1;ratioP1;P1;durP2;ratioP2;P2;SDS_P1;SDS_P2;PMS_P1;PMS_P2;Temp;Humidity;BMP_temperature;BMP_pressure;BME280_temperature;BME280_humidity;BME280_pressure;Samples;Min_cycle;Max_cycle;Signal;HPM_P1;HPM_P2
2024/04/11 00:00:29;;;;;;;4.40;1.33;;;;;;;;;;5212299;27;87581;-80
2024/04/11 00:02:57;;;;;;;4.82;1.30;;;;;;;;;;5211106;27;89475;-79
2024/04/11 00:05:26;;;;;;;2.70;1.10;;;;;;;;;;5185111;27;89614;-81
2024/04/11 00:07:53;;;;;;;;;;;;;;;;;;5182167;27;86473;-81
2024/04/11 00:10:20;;;;;;;5.78;1.23;;;;;;;;;;5186669;27;89582;-82
2024/04/11 00:12:50;;;;;;;5.25;1.30;;;;;;;;;;5211784;27;86582;-80
2024/04/11 00:15:23;;;;;;;5.80;1.23;;;;;;;;;;5212416;27;88619;-80
2024/04/11 00:17:54;;;;;;;3.80;1.30;;;;;;;;;;5176231;27;88562;-81
2024/04/11 00:20:21;;;;;;;4.78;1.20;;;;;;;;;;5179647;27;85929;-80
2024/04/11 00:22:57;;;;;;;6.95;1.27;;;;;;;;;;5178620;27;86412;-81
2024/04/11 00:25:26;;;;;;;5.63;1.27;;;;;;;;;;5179004;27;88487;-81
2024/04/11 00:27:53;;;;;;;4.75;1.30;;;;;;;;;;5204748;27;86967;-80
2024/04/11 00:30:20;;;;;;;5.30;1.30;;;;;;;;;;5179164;27;88022;-81
2024/04/11 00:32:48;;;;;;;6.18;1.48;;;;;;;;;;5183854;27;87094;-81
2024/04/11 00:35:19;;;;;;;4.97;1.40;;;;;;;;;;5191563;27;87808;-80
2024/04/11 00:37:48;;;;;;;6.10;1.40;;;;;;;;;;5215559;27;87849;-82
2024/04/11 00:40:15;;;;;;;4.05;1.30;;;;;;;;;;5211718;27;89081;-81
2024/04/11 00:42:43;;;;;;;5.43;1.30;;;;;;;;;;5210984;27;86970;-79
2024/04/11 00:45:10;;;;;;;5.68;1.27;;;;;;;;;;5212946;27;88242;-79
2024/04/11 00:47:40;;;;;;;6.32;1.30;;;;;;;;;;5212025;27;94324;-82
2024/04/11 00:50:07;;;;;;;4.10;1.20;;;;;;;;;;5183136;27;89841;-80
2024/04/11 00:52:36;;;;;;;5.68;1.25;;;;;;;;;;5155268;27;90068;-81
2024/04/11 00:55:18;;;;;;;4.80;1.13;;;;;;;;;;5395422;25;84900;-81
2024/04/11 00:57:45;;;;;;;4.07;1.30;;;;;;;;;;5368623;26;85266;-81
2024/04/11 01:00:12;;;;;;;3.00;1.00;;;;;;;;;;5368338;26;85070;-81
2024/04/11 01:02:42;;;;;;;3.65;1.10;;;;;;;;;;5367786;26;85654;-81
2024/04/11 01:05:09;;;;;;;5.40;1.05;;;;;;;;;;5339232;26;86132;-81
2024/04/11 01:07:36;;;;;;;4.55;1.00;;;;;;;;;;5368265;26;86891;-81
2024/04/11 01:10:07;;;;;;;3.88;1.08;;;;;;;;;;5367933;26;87338;-82
2024/04/11 01:12:38;;;;;;;6.10;1.38;;;;;;;;;;5339300;26;88350;-82
2024/04/11 01:15:06;;;;;;;6.32;1.15;;;;;;;;;;5336194;26;87214;-82
2024/04/11 01:17:34;;;;;;;4.45;1.10;;;;;;;;;;5365896;26;89204;-82
2024/04/11 01:20:01;;;;;;;;;;;;;;;;;;5367280;26;85112;-83
2024/04/11 01:22:28;;;;;;;4.50;1.08;;;;;;;;;;5330550;26;87133;-83
2024/04/11 01:24:57;;;;;;;4.22;1.08;;;;;;;;;;5367174;26;86864;-81
2024/04/11 01:27:29;;;;;;;3.22;1.02;;;;;;;;;;5366324;26;88882;-81
2024/04/11 01:30:02;;;;;;;4.25;1.10;;;;;;;;;;5363202;26;90275;-81
2024/04/11 01:32:30;;;;;;;7.53;1.48;;;;;;;;;;5367925;26;87112;-82
2024/04/11 01:34:59;;;;;;;;;;;;;;;;;;5373615;26;87233;-81
2024/04/11 01:37:26;;;;;;;5.63;1.33;;;;;;;;;;5402864;26;87777;-81
2024/04/11 01:39:55;;;;;;;3.80;1.10;;;;;;;;;;5372071;26;85585;-82
2024/04/11 01:42:29;;;;;;;4.05;1.13;;;;;;;;;;5403555;26;85694;-82
2024/04/11 01:45:07;;;;;;;4.07;1.20;;;;;;;;;;5404137;26;85548;-82
2024/04/11 01:47:38;;;;;;;5.53;1.38;;;;;;;;;;5396581;26;87477;-82
2024/04/11 01:50:06;;;;;;;3.72;1.15;;;;;;;;;;5340445;26;86242;-82
2024/04/11 01:52:33;;;;;;;5.90;1.20;;;;;;;;;;5366672;26;85260;-82
2024/04/11 01:55:03;;;;;;;5.20;1.10;;;;;;;;;;5370267;26;85919;-82
2024/04/11 01:57:30;;;;;;;4.97;1.33;;;;;;;;;;5340724;26;87245;-81
2024/04/11 01:59:57;;;;;;;5.93;1.25;;;;;;;;;;5374082;26;86963;-80
2024/04/11 02:02:29;;;;;;;3.17;1.00;;;;;;;;;;5372073;26;85249;-82
2024/04/11 02:04:56;;;;;;;4.30;1.05;;;;;;;;;;5332229;26;84995;-82
2024/04/11 02:07:26;;;;;;;5.55;1.30;;;;;;;;;;5322914;26;85201;-81
2024/04/11 02:09:54;;;;;;;5.25;1.20;;;;;;;;;;5304021;26;87106;-80
2024/04/11 02:12:26;;;;;;;5.97;1.10;;;;;;;;;;5354461;26;88863;-82
2024/04/11 02:14:55;;;;;;;5.32;1.15;;;;;;;;;;5355702;26;86993;-82
2024/04/11 02:17:24;;;;;;;7.07;1.35;;;;;;;;;;5354698;26;88068;-80
2024/04/11 02:19:53;;;;;;;4.93;1.30;;;;;;;;;;5352656;26;89949;-79
2024/04/11 02:22:20;;;;;;;3.47;1.10;;;;;;;;;;5357099;26;85398;-81
2024/04/11 02:24:47;;;;;;;5.15;1.38;;;;;;;;;;5354554;26;86864;-80
2024/04/11 02:27:13;;;;;;;6.57;1.30;;;;;;;;;;5323292;26;87555;-80
2024/04/11 02:29:40;;;;;;;4.82;1.15;;;;;;;;;;5352885;26;86146;-81
2024/04/11 02:32:07;;;;;;;3.60;1.02;;;;;;;;;;5355287;26;86050;-81
2024/04/11 02:34:37;;;;;;;5.35;1.10;;;;;;;;;;5354349;26;88245;-80
2024/04/11 02:37:06;;;;;;;5.85;1.38;;;;;;;;;;5386564;26;85523;-81
2024/04/11 02:39:33;;;;;;;4.22;1.10;;;;;;;;;;5388782;26;87043;-80
2024/04/11 02:42:00;;;;;;;5.10;1.20;;;;;;;;;;5382330;26;85564;-83
2024/04/11 02:44:29;;;;;;;5.72;1.20;;;;;;;;;;5383503;26;85166;-81
2024/04/11 02:46:56;;;;;;;5.80;1.10;;;;;;;;;;5321816;26;87028;-80
2024/04/11 02:49:25;;;;;;;5.00;1.08;;;;;;;;;;5354147;26;87980;-81
2024/04/11 02:51:53;;;;;;;4.55;1.42;;;;;;;;;;5375657;26;87561;-81
2024/04/11 02:54:20;;;;;;;5.20;1.20;;;;;;;;;;5350173;26;85555;-82
2024/04/11 02:56:49;;;;;;;4.85;1.30;;;;;;;;;;5350008;26;85492;-81
2024/04/11 02:59:16;;;;;;;8.35;1.63;;;;;;;;;;5351407;26;85037;-81
2024/04/11 03:01:42;;;;;;;4.85;1.10;;;;;;;;;;5351302;26;91846;-81
2024/04/11 03:04:10;;;;;;;6.15;1.23;;;;;;;;;;5350725;26;86836;-80
2024/04/11 03:06:37;;;;;;;3.83;1.20;;;;;;;;;;5353377;26;85208;-81
2024/04/11 03:09:09;;;;;;;4.22;1.13;;;;;;;;;;5350715;26;85295;-81
2024/04/11 03:11:42;;;;;;;5.32;1.10;;;;;;;;;;5349733;26;93248;-82
2024/04/11 03:14:09;;;;;;;4.95;1.20;;;;;;;;;;5350758;26;85539;-81
2024/04/11 03:16:36;;;;;;;6.32;1.33;;;;;;;;;;5351792;26;85210;-80
2024/04/11 03:19:03;;;;;;;6.97;1.23;;;;;;;;;;5351325;26;84987;-81
2024/04/11 03:21:30;;;;;;;4.65;1.20;;;;;;;;;;5351257;26;87292;-81
2024/04/11 03:23:57;;;;;;;5.45;1.17;;;;;;;;;;5349330;26;86610;-81
2024/04/11 03:26:24;;;;;;;4.18;1.20;;;;;;;;;;5382848;26;86076;-82
2024/04/11 03:28:51;;;;;;;6.50;1.25;;;;;;;;;;5293582;26;85595;-80
2024/04/11 03:31:21;;;;;;;4.85;1.05;;;;;;;;;;5351299;26;85632;-81
2024/04/11 03:33:55;;;;;;;5.45;1.27;;;;;;;;;;5318403;26;86659;-79
2024/04/11 03:36:22;;;;;;;4.88;1.20;;;;;;;;;;5350014;26;90596;-80
2024/04/11 03:38:54;;;;;;;6.28;1.23;;;;;;;;;;5350102;26;85574;-79
2024/04/11 03:41:22;;;;;;;6.15;1.27;;;;;;;;;;5351052;26;85541;-79
2024/04/11 03:43:53;;;;;;;4.55;1.10;;;;;;;;;;5349386;26;85406;-79
2024/04/11 03:46:23;;;;;;;6.00;1.20;;;;;;;;;;5350159;26;86307;-80
2024/04/11 03:48:55;;;;;;;5.15;1.27;;;;;;;;;;5324904;26;88227;-81
2024/04/11 03:51:23;;;;;;;5.28;1.30;;;;;;;;;;5351578;26;86134;-81
2024/04/11 03:53:51;;;;;;;5.57;1.33;;;;;;;;;;5351204;26;86475;-82
2024/04/11 03:56:21;;;;;;;3.35;1.15;;;;;;;;;;5340071;26;88182;-80
2024/04/11 03:58:50;;;;;;;5.63;1.38;;;;;;;;;;5315754;26;85758;-81
2024/04/11 04:01:18;;;;;;;4.68;1.45;;;;;;;;;;5315918;26;87788;-81
2024/04/11 04:03:51;;;;;;;5.00;1.30;;;;;;;;;;5314528;26;86837;-81
2024/04/11 04:06:19;;;;;;;7.18;1.27;;;;;;;;;;5316830;26;85724;-81
2024/04/11 04:08:47;;;;;;;8.52;1.40;;;;;;;;;;5287088;26;85680;-82
2024/04/11 04:11:20;;;;;;;6.10;1.30;;;;;;;;;;5349112;26;88518;-82
2024/04/11 04:13:47;;;;;;;7.90;1.40;;;;;;;;;;5314603;26;86317;-82
2024/04/11 04:16:16;;;;;;;4.03;1.10;;;;;;;;;;5313871;26;88501;-81
2024/04/11 04:18:50;;;;;;;4.88;1.10;;;;;;;;;;5346733;26;85370;-83
2024/04/11 04:21:20;;;;;;;4.05;1.23;;;;;;;;;;5380502;26;88141;-83
2024/04/11 04:23:49;;;;;;;5.00;1.13;;;;;;;;;;5322883;26;86295;-82
2024/04/11 04:26:20;;;;;;;4.55;1.30;;;;;;;;;;5353295;26;86886;-80
2024/04/11 04:28:48;;;;;;;7.10;1.48;;;;;;;;;;5350009;26;85049;-81
2024/04/11 04:31:22;;;;;;;4.45;1.35;;;;;;;;;;5349895;26;85151;-82
2024/04/11 04:33:50;;;;;;;5.20;1.20;;;;;;;;;;5323166;26;89196;-82
2024/04/11 04:36:24;;;;;;;8.80;1.45;;;;;;;;;;5375885;26;88299;-79
2024/04/11 04:38:50;;;;;;;7.60;1.33;;;;;;;;;;5353627;26;85782;-80
2024/04/11 04:41:18;;;;;;;5.70;1.40;;;;;;;;;;5364239;26;87585;-80
2024/04/11 04:43:45;;;;;;;6.35;1.40;;;;;;;;;;5353005;26;85324;-80
2024/04/11 04:46:15;;;;;;;6.70;1.30;;;;;;;;;;5349457;26;86920;-81
2024/04/11 04:48:42;;;;;;;4.30;1.20;;;;;;;;;;5370858;26;88110;-80
2024/04/11 04:51:11;;;;;;;5.00;1.40;;;;;;;;;;5384478;26;88042;-80
2024/04/11 04:53:38;;;;;;;6.80;1.33;;;;;;;;;;5377437;26;85723;-80
2024/04/11 04:56:07;;;;;;;4.75;1.05;;;;;;;;;;5361586;26;86231;-79
2024/04/11 04:58:41;;;;;;;6.40;1.40;;;;;;;;;;5383099;26;88775;-79
2024/04/11 05:01:09;;;;;;;8.57;1.40;;;;;;;;;;5326606;26;86947;-79
2024/04/11 05:03:39;;;;;;;5.88;1.33;;;;;;;;;;5347796;26;86861;-79
2024/04/11 05:06:07;;;;;;;6.15;1.40;;;;;;;;;;5348082;26;85912;-80
2024/04/11 05:08:34;;;;;;;6.72;1.50;;;;;;;;;;5347477;26;89008;-80
2024/04/11 05:11:10;;;;;;;4.35;1.17;;;;;;;;;;5318257;26;88961;-79
2024/04/11 05:13:38;;;;;;;4.93;1.20;;;;;;;;;;5344646;26;87563;-80
2024/04/11 05:16:06;;;;;;;3.85;1.13;;;;;;;;;;5349489;26;87434;-79
2024/04/11 05:18:39;;;;;;;6.15;1.40;;;;;;;;;;5347158;26;87627;-80
2024/04/11 05:21:08;;;;;;;5.28;1.20;;;;;;;;;;5347486;26;89737;-81
2024/04/11 05:23:38;;;;;;;6.15;1.30;;;;;;;;;;5375513;26;89376;-81
2024/04/11 05:26:13;;;;;;;5.45;1.20;;;;;;;;;;5346674;26;86510;-82
2024/04/11 05:28:44;;;;;;;3.38;1.20;;;;;;;;;;5348006;26;86595;-81
2024/04/11 05:31:16;;;;;;;5.20;1.20;;;;;;;;;;5344049;26;89089;-80
2024/04/11 05:33:44;;;;;;;6.35;1.40;;;;;;;;;;5347492;26;86956;-80
2024/04/11 05:36:17;;;;;;;7.57;1.40;;;;;;;;;;5370200;26;87652;-82
2024/04/11 05:38:46;;;;;;;3.65;1.00;;;;;;;;;;5386343;26;87512;-81
2024/04/11 05:41:14;;;;;;;3.55;1.20;;;;;;;;;;5375249;26;88263;-82
2024/04/11 05:43:50;;;;;;;4.72;1.20;;;;;;;;;;5318763;26;87233;-81
2024/04/11 05:46:18;;;;;;;6.93;1.10;;;;;;;;;;5349850;26;86667;-81
2024/04/11 05:48:48;;;;;;;3.45;1.10;;;;;;;;;;5368244;26;89610;-81
2024/04/11 05:51:16;;;;;;;4.68;1.17;;;;;;;;;;5350515;26;87016;-79
2024/04/11 05:53:42;;;;;;;4.45;1.20;;;;;;;;;;5348769;26;89016;-81
2024/04/11 05:56:10;;;;;;;5.30;1.27;;;;;;;;;;5359365;26;88611;-81
2024/04/11 05:58:40;;;;;;;3.97;1.20;;;;;;;;;;5385429;26;87206;-81
2024/04/11 06:01:09;;;;;;;4.93;1.23;;;;;;;;;;5374114;26;86751;-80
2024/04/11 06:03:37;;;;;;;5.63;1.48;;;;;;;;;;5347660;26;89444;-81
2024/04/11 06:06:10;;;;;;;4.53;1.40;;;;;;;;;;5349055;26;86202;-79
2024/04/11 06:08:42;;;;;;;5.30;1.30;;;;;;;;;;5319924;26;88677;-81
2024/04/11 06:11:10;;;;;;;4.82;1.10;;;;;;;;;;5350195;26;88901;-80
2024/04/11 06:13:41;;;;;;;3.80;1.20;;;;;;;;;;5347705;26;86921;-79
2024/04/11 06:16:07;;;;;;;6.43;1.20;;;;;;;;;;5350069;26;86426;-80
2024/04/11 06:18:38;;;;;;;4.68;1.25;;;;;;;;;;5349650;26;86806;-80
2024/04/11 06:21:05;;;;;;;4.65;1.27;;;;;;;;;;5321076;26;88706;-81
2024/04/11 06:23:35;;;;;;;4.18;1.10;;;;;;;;;;5353103;26;88538;-80
2024/04/11 06:26:03;;;;;;;6.13;1.42;;;;;;;;;;5349440;26;90370;-81
2024/04/11 06:28:33;;;;;;;3.42;1.20;;;;;;;;;;5347884;26;87368;-80
2024/04/11 06:31:01;;;;;;;;;;;;;;;;;;5346690;26;88445;-81
2024/04/11 06:33:31;;;;;;;4.15;1.23;;;;;;;;;;5350268;26;86171;-81
2024/04/11 06:36:06;;;;;;;4.75;1.30;;;;;;;;;;5347055;26;92808;-81
2024/04/11 06:38:34;;;;;;;4.57;1.15;;;;;;;;;;5349530;26;87664;-82
2024/04/11 06:41:02;;;;;;;7.22;1.40;;;;;;;;;;5317333;26;88565;-83
2024/04/11 06:43:31;;;;;;;4.60;1.10;;;;;;;;;;5348476;26;86932;-82
2024/04/11 06:46:03;;;;;;;5.72;1.20;;;;;;;;;;5353870;26;91040;-82
2024/04/11 06:48:49;;;;;;;4.72;1.30;;;;;;;;;;5372304;26;88278;-81
2024/04/11 06:51:30;;;;;;;4.97;1.20;;;;;;;;;;5385445;26;89576;-82
2024/04/11 06:54:00;;;;;;;4.95;1.33;;;;;;;;;;5378324;26;89998;-82
2024/04/11 06:56:28;;;;;;;4.65;1.05;;;;;;;;;;5355428;26;89718;-82
2024/04/11 06:58:56;;;;;;;3.70;1.02;;;;;;;;;;5350787;26;87239;-81
2024/04/11 07:01:26;;;;;;;4.20;1.10;;;;;;;;;;5349350;26;86321;-81
2024/04/11 07:04:01;;;;;;;6.25;1.38;;;;;;;;;;5348376;26;92989;-78
2024/04/11 07:06:29;;;;;;;3.63;1.15;;;;;;;;;;5377827;26;86876;-79
2024/04/11 07:09:03;;;;;;;6.32;1.23;;;;;;;;;;5353621;26;87814;-80
2024/04/11 07:11:40;;;;;;;;;;;;;;;;;;5351879;26;87031;-84
2024/04/11 07:14:15;;;;;;;5.18;1.20;;;;;;;;;;5353845;26;90684;-82
2024/04/11 07:16:44;;;;;;;4.38;1.10;;;;;;;;;;5350906;26;86970;-82
2024/04/11 07:19:16;;;;;;;2.60;1.10;;;;;;;;;;5352178;26;87394;-83
2024/04/11 07:21:43;;;;;;;5.00;1.15;;;;;;;;;;5351024;26;86048;-82
2024/04/11 07:24:13;;;;;;;6.78;1.30;;;;;;;;;;5355988;26;86783;-85
2024/04/11 07:27:04;;;;;;;7.35;1.50;;;;;;;;;;5356770;26;117667;-82
2024/04/11 07:29:31;;;;;;;7.97;1.40;;;;;;;;;;5361260;26;86113;-84
2024/04/11 07:31:58;;;;;;;;;;;;;;;;;;5344626;26;91366;-81
2024/04/11 07:34:28;;;;;;;8.80;1.33;;;;;;;;;;5353964;26;87733;-83
2024/04/11 07:36:59;;;;;;;8.43;1.50;;;;;;;;;;5317915;26;86583;-82
2024/04/11 07:39:26;;;;;;;4.38;1.50;;;;;;;;;;5286862;26;89679;-82
2024/04/11 07:42:18;;;;;;;7.35;1.65;;;;;;;;;;5328484;26;90358;-84
2024/04/11 07:44:48;;;;;;;6.50;1.23;;;;;;;;;;5351670;26;86789;-82
2024/04/11 07:47:37;;;;;;;3.83;1.13;;;;;;;;;;5349949;26;88879;-82
2024/04/11 07:50:44;;;;;;;5.07;1.45;;;;;;;;;;5329363;26;88516;-82
2024/04/11 07:53:31;;;;;;;5.68;1.20;;;;;;;;;;5354776;26;89548;-83
2024/04/11 07:55:59;;;;;;;7.93;1.70;;;;;;;;;;5309629;26;92263;-82
2024/04/11 07:58:32;;;;;;;7.97;1.80;;;;;;;;;;5336623;26;86525;-82
2024/04/11 08:01:14;;;;;;;3.42;1.50;;;;;;;;;;5313145;26;86119;-81
2024/04/11 08:04:24;;;;;;;8.02;1.40;;;;;;;;;;5292251;26;92114;-80
2024/04/11 08:07:20;;;;;;;5.97;1.52;;;;;;;;;;5314459;26;87301;-83
2024/04/11 08:10:36;;;;;;;5.07;1.42;;;;;;;;;;5277583;26;95358;-81
2024/04/11 08:14:08;;;;;;;6.10;1.73;;;;;;;;;;5231714;26;87327;-81
2024/04/11 08:16:39;;;;;;;6.65;2.00;;;;;;;;;;5273319;26;88217;-83
2024/04/11 08:19:09;;;;;;;5.88;1.40;;;;;;;;;;5273087;26;89058;-83
2024/04/11 08:21:36;;;;;;;7.13;1.80;;;;;;;;;;5266402;26;88993;-82
2024/04/11 08:24:07;;;;;;;5.05;1.55;;;;;;;;;;5275329;26;86879;-79
2024/04/11 08:26:37;;;;;;;5.68;1.60;;;;;;;;;;5242459;26;88284;-79
2024/04/11 08:29:39;;;;;;;5.70;1.65;;;;;;;;;;5247611;26;87024;-80
2024/04/11 08:32:06;;;;;;;19.60;1.88;;;;;;;;;;5248116;26;89991;-84
2024/04/11 08:34:33;;;;;;;9.88;1.45;;;;;;;;;;5249701;26;88373;-83
2024/04/11 08:37:22;;;;;;;7.45;1.73;;;;;;;;;;5237338;26;87118;-81
2024/04/11 08:39:52;;;;;;;5.40;1.50;;;;;;;;;;5271806;26;87581;-82
2024/04/11 08:46:08;;;;;;;5.75;1.80;;;;;;;;;;5349114;26;86428;-81
2024/04/11 08:48:35;;;;;;;4.97;1.60;;;;;;;;;;5354718;26;87930;-82
2024/04/11 08:51:03;;;;;;;3.80;1.42;;;;;;;;;;5384584;26;86530;-82
2024/04/11 08:54:07;;;;;;;6.57;1.92;;;;;;;;;;5346754;26;91280;-81
2024/04/11 08:56:34;;;;;;;6.47;1.58;;;;;;;;;;5378268;26;86715;-81
2024/04/11 09:02:33;;;;;;;4.30;1.55;;;;;;;;;;5301022;26;91268;-82
2024/04/11 09:05:36;;;;;;;6.13;1.90;;;;;;;;;;5315044;26;91476;-82
2024/04/11 09:11:07;;;;;;;4.50;1.60;;;;;;;;;;5164095;27;86997;-83
2024/04/11 09:13:36;;;;;;;5.57;1.75;;;;;;;;;;5142668;27;88174;-82
2024/04/11 09:16:06;;;;;;;5.03;1.90;;;;;;;;;;5177728;27;88035;-82
2024/04/11 09:18:33;;;;;;;5.78;1.73;;;;;;;;;;5151758;27;86101;-82
2024/04/11 09:21:04;;;;;;;5.22;1.65;;;;;;;;;;5260125;26;86086;-82
2024/04/11 09:23:43;;;;;;;4.40;1.77;;;;;;;;;;5351072;26;86827;-84
2024/04/11 09:26:13;;;;;;;4.68;1.60;;;;;;;;;;5350550;26;93252;-82
2024/04/11 09:28:41;;;;;;;4.88;1.80;;;;;;;;;;5346826;26;87954;-81
2024/04/11 09:31:52;;;;;;;;;;;;;;;;;;;;;
2024/04/11 09:35:05;;;;;;;;;;;;;;;;;;;;;
2024/04/11 09:37:35;;;;;;;5.20;1.98;;;;;;;;;;5352645;26;87618;-81
2024/04/11 09:41:02;;;;;;;5.57;1.80;;;;;;;;;;5351863;26;89367;-82
2024/04/11 09:43:35;;;;;;;4.63;1.73;;;;;;;;;;5317103;26;89057;-81
2024/04/11 09:46:06;;;;;;;4.00;1.75;;;;;;;;;;5347609;26;91164;-81
2024/04/11 09:48:38;;;;;;;5.40;2.05;;;;;;;;;;5351507;26;86843;-81
2024/04/11 09:51:10;;;;;;;6.07;2.00;;;;;;;;;;5310409;26;86942;-81
2024/04/11 09:53:37;;;;;;;5.78;2.00;;;;;;;;;;5300882;26;88489;-82
2024/04/11 09:56:23;;;;;;;6.20;2.00;;;;;;;;;;5309777;26;87816;-83
2024/04/11 09:59:02;;;;;;;4.72;1.80;;;;;;;;;;5316808;26;88519;-82
2024/04/11 10:02:33;;;;;;;5.85;2.10;;;;;;;;;;5311767;26;89915;-82
2024/04/11 10:05:05;;;;;;;6.78;2.00;;;;;;;;;;5314533;26;87336;-83
2024/04/11 10:07:42;;;;;;;7.25;1.95;;;;;;;;;;5278045;26;89993;-82
2024/04/11 10:10:18;;;;;;;6.22;1.90;;;;;;;;;;5281210;26;90789;-81
2024/04/11 10:12:48;;;;;;;3.72;1.63;;;;;;;;;;5309297;26;88979;-81
2024/04/11 10:15:21;;;;;;;3.92;1.70;;;;;;;;;;5265823;26;87582;-82
2024/04/11 10:18:09;;;;;;;4.55;2.00;;;;;;;;;;5278114;26;88635;-85
2024/04/11 10:20:42;;;;;;;5.30;1.95;;;;;;;;;;5313924;26;86814;-82
2024/04/11 10:23:10;;;;;;;5.72;2.15;;;;;;;;;;5314764;26;86680;-81
2024/04/11 10:25:58;;;;;;;4.68;1.95;;;;;;;;;;5273729;26;86613;-81
2024/04/11 10:29:33;;;;;;;4.32;1.85;;;;;;;;;;5300528;26;88089;-81
2024/04/11 10:36:06;;;;;;;4.95;1.92;;;;;;;;;;5195685;27;86197;-81
2024/04/11 10:39:21;;;;;;;5.38;2.05;;;;;;;;;;5196811;27;87123;-83
2024/04/11 10:41:57;;;;;;;5.72;1.85;;;;;;;;;;5186951;26;87614;-82
2024/04/11 10:44:28;;;;;;;4.38;1.98;;;;;;;;;;5161183;27;89832;-81
2024/04/11 10:46:55;;;;;;;5.93;2.05;;;;;;;;;;5183577;27;86275;-81
2024/04/11 10:49:55;;;;;;;4.88;1.88;;;;;;;;;;5183188;27;86741;-81
2024/04/11 10:52:45;;;;;;;4.47;1.90;;;;;;;;;;5180608;27;92183;-83
2024/04/11 10:55:28;;;;;;;4.75;2.00;;;;;;;;;;5166188;27;88802;-81
2024/04/11 11:02:02;;;;;;;4.13;1.83;;;;;;;;;;5154343;27;91193;-82
2024/04/11 11:04:33;;;;;;;4.38;2.00;;;;;;;;;;5177535;27;86719;-81
2024/04/11 11:07:12;;;;;;;3.75;1.70;;;;;;;;;;5104108;27;89390;-81
2024/04/11 11:09:45;;;;;;;4.18;1.80;;;;;;;;;;5167068;27;87882;-82
2024/04/11 11:12:15;;;;;;;4.75;1.90;;;;;;;;;;5314880;26;88069;-82
2024/04/11 11:14:43;;;;;;;4.68;1.85;;;;;;;;;;5315451;26;88122;-80
2024/04/11 11:17:22;;;;;;;4.07;1.85;;;;;;;;;;5329808;26;85800;-82
2024/04/11 11:20:13;;;;;;;4.55;1.80;;;;;;;;;;5308800;26;90774;-83
2024/04/11 11:22:41;;;;;;;4.32;1.90;;;;;;;;;;5349119;26;87201;-79
2024/04/11 11:25:09;;;;;;;4.10;1.60;;;;;;;;;;5346048;26;86933;-79
2024/04/11 11:27:38;;;;;;;5.10;2.10;;;;;;;;;;5346953;26;87356;-78
2024/04/11 11:30:06;;;;;;;3.97;1.90;;;;;;;;;;5348842;26;86807;-80
2024/04/11 11:32:37;;;;;;;4.68;1.80;;;;;;;;;;5350340;26;86779;-80
2024/04/11 11:35:05;;;;;;;3.80;1.80;;;;;;;;;;5325695;26;88440;-79
2024/04/11 11:37:33;;;;;;;4.88;1.80;;;;;;;;;;5382229;26;87845;-80
2024/04/11 11:42:46;;;;;;;;;;;;;;;;;;5356290;26;86355;-79
2024/04/11 11:45:26;;;;;;;3.47;1.70;;;;;;;;;;5361008;26;95046;-80
2024/04/11 11:47:57;;;;;;;4.35;1.77;;;;;;;;;;5357855;26;86728;-81
2024/04/11 11:50:38;;;;;;;3.72;1.80;;;;;;;;;;5413038;26;87668;-82
2024/04/11 11:55:58;;;;;;;4.45;1.85;;;;;;;;;;5379039;26;88919;-82
2024/04/11 11:58:44;;;;;;;7.68;2.45;;;;;;;;;;5326513;26;86394;-83
2024/04/11 12:01:35;;;;;;;7.60;2.28;;;;;;;;;;5341285;26;89004;-81
2024/04/11 12:04:30;;;;;;;6.25;2.00;;;;;;;;;;5353496;26;93120;-82
2024/04/11 12:07:00;;;;;;;6.18;2.20;;;;;;;;;;5336391;26;86216;-82
2024/04/11 12:09:31;;;;;;;7.88;2.50;;;;;;;;;;5352715;26;86901;-87
2024/04/11 12:12:20;;;;;;;6.10;2.00;;;;;;;;;;5351543;26;91225;-82
2024/04/11 12:14:54;;;;;;;7.03;2.00;;;;;;;;;;5352166;26;87395;-82
2024/04/11 12:17:23;;;;;;;6.07;2.08;;;;;;;;;;5355685;26;87453;-81
2024/04/11 12:19:52;;;;;;;5.90;2.13;;;;;;;;;;5272759;26;87166;-81
2024/04/11 12:22:19;;;;;;;5.72;2.22;;;;;;;;;;5347235;26;88306;-83
2024/04/11 12:24:46;;;;;;;9.98;2.28;;;;;;;;;;5342705;26;89061;-81
2024/04/11 12:27:13;;;;;;;6.03;2.20;;;;;;;;;;5366137;26;86636;-82
2024/04/11 12:29:42;;;;;;;4.38;1.80;;;;;;;;;;5320896;26;88481;-82
2024/04/11 12:32:12;;;;;;;6.10;2.30;;;;;;;;;;5349860;26;86456;-81
2024/04/11 12:34:55;;;;;;;;;;;;;;;;;;;;;
2024/04/11 12:37:25;;;;;;;5.55;2.15;;;;;;;;;;5400873;26;86080;-81
2024/04/11 12:43:37;;;;;;;5.70;2.20;;;;;;;;;;5286151;26;89300;-82
2024/04/11 12:53:25;;;;;;;4.28;1.85;;;;;;;;;;5279587;26;87405;-82
2024/04/11 12:55:56;;;;;;;4.60;2.00;;;;;;;;;;5308738;26;88109;-82
2024/04/11 12:58:24;;;;;;;6.20;2.05;;;;;;;;;;5339531;26;87899;-81
2024/04/11 13:01:32;;;;;;;3.95;1.88;;;;;;;;;;5342366;26;89500;-82
2024/04/11 13:04:08;;;;;;;5.00;2.00;;;;;;;;;;5333073;26;91328;-81
2024/04/11 13:06:48;;;;;;;5.03;2.20;;;;;;;;;;5321414;26;88619;-82
2024/04/11 13:10:14;;;;;;;6.15;2.08;;;;;;;;;;5317085;26;87796;-81
2024/04/11 13:13:29;;;;;;;;;;;;;;;;;;;;;
2024/04/11 13:16:25;;;;;;;;;;;;;;;;;;;;;
2024/04/11 13:18:53;;;;;;;6.22;1.98;;;;;;;;;;5369317;26;88102;-83
2024/04/11 13:25:35;;;;;;;5.25;2.13;;;;;;;;;;5335897;26;89116;-82
2024/04/11 13:28:22;;;;;;;4.32;1.75;;;;;;;;;;5258592;26;92150;-83
2024/04/11 13:31:26;;;;;;;5.28;1.90;;;;;;;;;;5301075;26;86676;-83
2024/04/11 13:37:17;;;;;;;5.00;1.90;;;;;;;;;;5336963;26;86206;-83
2024/04/11 13:42:41;;;;;;;4.55;2.00;;;;;;;;;;5332473;26;89058;-81
2024/04/11 13:45:25;;;;;;;;;;;;;;;;;;5343035;26;86395;-81
2024/04/11 13:47:58;;;;;;;5.50;1.95;;;;;;;;;;5336969;26;87458;-82
2024/04/11 13:50:44;;;;;;;5.53;1.70;;;;;;;;;;5280363;26;89646;-83
2024/04/11 13:53:14;;;;;;;;;;;;;;;;;;5312902;26;86281;-82
2024/04/11 13:55:43;;;;;;;4.03;1.80;;;;;;;;;;5332450;26;87499;-82
2024/04/11 13:58:13;;;;;;;5.20;2.05;;;;;;;;;;5369601;26;88004;-81
2024/04/11 14:00:50;;;;;;;4.68;1.83;;;;;;;;;;5347137;26;91141;-81
2024/04/11 14:03:24;;;;;;;4.30;1.90;;;;;;;;;;5350071;26;89424;-81
2024/04/11 14:08:42;;;;;;;4.43;1.80;;;;;;;;;;5200908;27;89039;-82
2024/04/11 14:11:10;;;;;;;4.72;1.73;;;;;;;;;;5327406;26;88290;-82
2024/04/11 14:17:06;;;;;;;3.60;1.50;;;;;;;;;;5351659;26;87321;-82
2024/04/11 14:20:25;;;;;;;4.60;1.80;;;;;;;;;;5337204;26;87687;-81
2024/04/11 14:23:47;;;;;;;3.83;1.80;;;;;;;;;;5264237;26;88449;-81
2024/04/11 14:29:32;;;;;;;3.97;1.77;;;;;;;;;;5336876;26;86276;-82
2024/04/11 14:32:29;;;;;;;3.80;1.70;;;;;;;;;;5318948;26;89329;-81
2024/04/11 14:40:07;;;;;;;5.18;1.77;;;;;;;;;;5323430;26;93641;-81
2024/04/11 14:42:34;;;;;;;4.70;1.73;;;;;;;;;;5358335;26;87276;-81
2024/04/11 14:45:06;;;;;;;4.47;1.88;;;;;;;;;;5351402;26;87214;-82
2024/04/11 14:47:34;;;;;;;4.97;1.88;;;;;;;;;;5300476;26;89211;-82
2024/04/11 14:50:03;;;;;;;4.63;1.90;;;;;;;;;;5283850;26;86719;-82
2024/04/11 14:52:31;;;;;;;3.85;1.52;;;;;;;;;;5325690;26;86644;-82
2024/04/11 14:54:59;;;;;;;4.00;1.80;;;;;;;;;;5348752;26;86788;-82
2024/04/11 15:00:48;;;;;;;4.38;1.77;;;;;;;;;;5310822;26;93533;-82
2024/04/11 15:03:57;;;;;;;3.30;1.50;;;;;;;;;;5347905;26;86971;-81
2024/04/11 15:06:47;;;;;;;3.60;1.63;;;;;;;;;;5350182;26;86164;-81
2024/04/11 15:09:28;;;;;;;4.13;1.70;;;;;;;;;;5325714;26;86740;-81
2024/04/11 15:12:13;;;;;;;3.70;1.60;;;;;;;;;;5304979;26;92106;-80
2024/04/11 15:14:42;;;;;;;4.70;2.03;;;;;;;;;;5309147;26;88660;-81
2024/04/11 15:17:20;;;;;;;4.22;1.58;;;;;;;;;;5350193;26;86590;-80
2024/04/11 15:19:47;;;;;;;3.95;1.80;;;;;;;;;;5348094;26;88460;-80
2024/04/11 15:22:25;;;;;;;3.47;1.50;;;;;;;;;;5349312;26;89178;-83
2024/04/11 15:24:59;;;;;;;4.72;1.80;;;;;;;;;;5312058;26;88861;-81
2024/04/11 15:28:05;;;;;;;4.25;1.55;;;;;;;;;;5350220;26;86163;-82
2024/04/11 15:33:37;;;;;;;3.08;1.50;;;;;;;;;;5350886;26;89070;-84
2024/04/11 15:37:16;;;;;;;4.00;1.70;;;;;;;;;;5355962;26;91689;-82
2024/04/11 15:39:44;;;;;;;5.22;1.85;;;;;;;;;;5382938;26;89929;-82
2024/04/11 15:42:11;;;;;;;3.58;1.70;;;;;;;;;;5353014;26;87937;-82
2024/04/11 15:44:46;;;;;;;5.32;1.92;;;;;;;;;;5318092;26;88299;-81
2024/04/11 15:48:13;;;;;;;3.40;1.55;;;;;;;;;;5334535;26;86552;-80
2024/04/11 15:50:40;;;;;;;4.45;1.60;;;;;;;;;;5355010;26;86922;-81
2024/04/11 15:53:16;;;;;;;3.95;1.67;;;;;;;;;;5363743;26;86416;-82
2024/04/11 15:56:44;;;;;;;3.83;1.67;;;;;;;;;;5347519;26;90937;-83
2024/04/11 15:59:27;;;;;;;2.92;1.67;;;;;;;;;;5352197;26;89439;-82
2024/04/11 16:01:57;;;;;;;3.72;1.58;;;;;;;;;;5347269;26;89779;-82
2024/04/11 16:04:24;;;;;;;3.83;1.60;;;;;;;;;;5348665;26;86572;-80
2024/04/11 16:10:34;;;;;;;6.13;2.10;;;;;;;;;;5349086;26;92430;-82
2024/04/11 16:16:50;;;;;;;4.85;1.92;;;;;;;;;;5355098;26;86905;-80
2024/04/11 16:19:21;;;;;;;5.50;2.15;;;;;;;;;;5348926;26;87469;-82
2024/04/11 16:21:52;;;;;;;4.35;1.75;;;;;;;;;;5347908;26;86721;-82
2024/04/11 16:24:49;;;;;;;4.90;1.90;;;;;;;;;;5349503;26;89484;-81
2024/04/11 16:33:44;;;;;;;;;;;;;;;;;;;;;
2024/04/11 16:36:43;;;;;;;4.30;1.90;;;;;;;;;;5379959;26;89182;-81
2024/04/11 16:45:58;;;;;;;5.75;2.30;;;;;;;;;;5351390;26;86806;-82
2024/04/11 16:51:55;;;;;;;5.03;2.00;;;;;;;;;;5309738;26;87453;-82
2024/04/11 16:54:40;;;;;;;4.55;1.95;;;;;;;;;;5349608;26;86728;-82
2024/04/11 16:57:12;;;;;;;4.78;1.90;;;;;;;;;;5349312;26;87488;-82
2024/04/11 17:02:58;;;;;;;4.63;2.10;;;;;;;;;;5200560;26;89351;-82
2024/04/11 17:05:28;;;;;;;5.03;1.95;;;;;;;;;;5320400;26;89313;-82
2024/04/11 17:08:21;;;;;;;4.47;2.05;;;;;;;;;;5348677;26;86401;-81